ЗЦ Ростов-на-Дону

ЗЦ ЕС ОрВД Ростов

Зональный Центр Единой Системы Организации Воздушного Движения (ЗЦ ЕС ОрВД) Ростов-на-Дону является структурным подразделением VATRUS.

В зону ответственности центра в сети VATSIM входит воздушное пространство над территориями Ростовской, Волгоградской, Астраханской областями; республиками Калмыкия, Дагестан, Чечня, Ингушетия, Северная Осетия - Алания, Карачаево-Черкесская, Адыгея, Крым*; Краснодарским и Ставропольским краями, а так же Грузией, Азербайджаном и Арменией.

Контакты для связи: 

Rostov ACC Chief (event manager) – Гарифуллин Карим (1463202) – chief@urrv.me
Rostov ACC Instructor – Бадалов Григорий (1115140) – ins01@urrv.me
Rostov ACC Instructor - Полостяной Валерий (1111228) - ins02@urrv.me

Дискорд сервер ЗЦ Ростов

Лого ЗЦ Ростов-на-Дону
Руководитель региона

Karim Garifullin

Контакты

Инструкторы региона
Denis Zhuchkov * (Senior Student)
George Kalandadze * (Controller)
Grigori Badalov (Instructor)
Karim Garifullin (Instructor)
Tigran Areian * (Controller)
Valeriy Polostyanoy (Instructor)
Включает в себя

РПИ Баку
РПИ Ереван
РПИ Ростов-на-Дону
РПИ Тбилиси*

Диспетчеры региона

Диспетчер Рейтинг Допуски *
Artem Smychkov Instructor URRV_CTR
Daniel Ryabkov Senior Student URRV_CTR *
Denis Zhuchkov Senior Student URRV_CTR *
George Kalandadze Controller UBBA_CTR, URRV_CTR, UGGG_CTR
Grigori Badalov Instructor UBBA_CTR, UDDD_CTR, URRV_CTR, UGGG_CTR
Ivan Chernov Senior Controller UBBA_CTR, UDDD_CTR, URRV_CTR, UGGG_CTR
Karim Garifullin Instructor UBBA_CTR, UDDD_CTR, URRV_CTR, UGGG_CTR
Konstantin Gorbunov Controller URRV_CTR
Tigran Areian Controller UDDD_CTR, URRV_CTR
Valeriy Polostyanoy Instructor UBBA_CTR, UDDD_CTR, URRV_CTR, UGGG_CTR
Alexey Zhirnov Student URSS_GND
Alikhan Aidarbek Student URSS_GND
Andrey Kharitonov Student URSS_GND*
Andrey Zonov Student 2 UBBB_GND, URSS_TWR!!!
Anton Nikolaev Student 2 URSS_APP*
Artem Tsendrovsky Senior Student UBBB_APP, URSS_APP, URWW_APP
Atsamaz Khodov Senior Student UBBB_TWR, URSS_APP*
Boris Chernov Student URSS_GND
Daniil Lekoncev Student URSS_GND
Danila Lezhnin Student URSS_GND
Denis Zhilyakov Student URSS_GND
Emanuel Teymoorian Student 2 UDYZ_TWR, UDYZ_APP*
Evgeny Listratov Student URSS_GND
Gregory Adamov Student 2 UBBB_TWR, URSS_TWR
Grigorii Turlykin Student 2 URSS_TWR
Ivan Pyataev Student URSS_GND
Kirill Ivanov Senior Student URSS_APP
Marian Florin Student UBBB_GND
Mikhail Petrov Student URSS_GND
Nika Avdalov Student 2 UGSB_TWR, UGTB_TWR, UGKO_TWR
Nikita Murushkin Student URKK_GND, URSS_GND
Renat Yengulatov Student URSS_GND
Roman Shelepov Student URSS_TWR!!!*
Sergey Vologzhin Student 2 URSS_GND
Suwan Kim Student 2 UGTB_TWR
Timofey Krasnov Student URSS_GND
YAKOV PONOMARENKO Student URSS_GND
Yaroslav Vasilyev Student 2 URSS_TWR!!!

Аэропорты региона

ICAO Город Название Погода
UBBB Баку Баку UBBB 020200Z 33008KT CAVOK 22/14 Q1007 NOSIG
UDYZ Ереван Звартноц UDYZ 020200Z VRB02KT 9999 NSC 21/11 Q1009 R09/010070 NOSIG
URFF Симферополь Симферополь
URSS Сочи Сочи URSS 020200Z 03005MPS 9999 FEW030 20/17 Q1010 R02/010070 R06/010070 NOSIG RMK R06/08004MPS MT OBSC QFE756
UGTB Тбилиси Тбилиси UGTB 020200Z 33012KT 9999 FEW049 SCT063 22/17 Q1011 NOSIG
URRY
URKA Анапа Анапа URKA 020200Z 05001MPS CAVOK 16/14 Q1012 R04/010070 NOSIG RMK QFE755/1007
URWA Астрахань Астрахань URWA 020200Z 01006MPS 350V050 CAVOK 18/10 Q1007 R27/010070 NOSIG RMK QFE757/1010
UGSB Батуми Батуми UGSB 020200Z 13008KT 9999 SCT020 BKN040 20/19 Q1012 NOSIG
URMO Владикавказ Беслан URMO 020200Z AUTO 18001MPS 9999 // ///077/// 17/16 Q1012 RMK QFE714/0952
URWW Волгоград Волгоград URWW 020200Z 29003MPS CAVOK 09/05 Q1010 R06/010070 TEMPO 1000 TSRAGR BKN004 BKN030CB
UBBQ Габала Габала UBBQ 020200Z 15003KT 9999 SCT090 18/11 Q1009 NOSIG RMK MT OP
URKG Геленджик Геленджик
URMG Грозный Грозный URMG 020200Z 22002MPS 9999 BKN080 19/17 Q1009 R26/090070 NOSIG RMK QFE742/0990
UDSG Гюмри Ширак UDSG 020200Z 07005KT 020V110 9999 VCTS SCT043CB 15/11 Q1015 R02/////// NOSIG
UBBG Гянджа Гянджа UBBG 020200Z 29010KT 9999 SCT083 21/12 Q1009 NOSIG
UDYE Ереван Эребуни
URKK Краснодар Пашковский URKK 020200Z 31002MPS CAVOK 19/16 Q1012 R05R/CLRD70 NOSIG RMK QFE756
UGKO Кутаиси Кутаиси UGKO 020200Z 25007KT 9999 BKN024CB 19/18 Q1011 NOSIG
URML Махачкала Уйташ URML 020200Z VRB01MPS 9999 NSC 20/17 Q1008 R32/01//70 NOSIG RMK QFE755/1007
URMM Минеральные Воды Минеральные Воды URMM 020200Z 30004MPS 9999 NSC 15/12 Q1011 R30/090070 NOSIG RMK QFE730/0974
URMS Назрань Магас
URMN Нальчик Нальчик URMN 020200Z 23002MPS 9999 BKN086 18/12 Q1010 R24/////// NOSIG RMK QFE721
UBBN Нахичевань Нахичевань UBBN 020200Z VRB02KT 9999 NSC 19/07 Q1007 NOSIG RMK MT OP QFE681
URRP Ростов-на-Дону Платов URRP 020200Z 33003MPS CAVOK 11/05 Q1015 R05/CLRD70 NOSIG RMK QFE756/1009
URRR Ростов-на-Дону Ростов-на-Дону
URMT Ставрополь Ставрополь URMT 020200Z 30004MPS CAVOK 17/09 Q1011 R25/010070 NOSIG RMK QFE720
URWI Элиста Элиста URWI 020200Z AUTO 36006MPS 9999 // ///083/// 14/06 Q1011
UGAM Амбролаури Амбролаури UGAM 020200Z AUTO 14003KT 090V160 //// ////// 16/16 Q1013
UBBL Ленкорань Ленкорань UBBL 020200Z 00000KT 9999 NSC 17/13 Q1008 NOSIG RMK MT OP
UGMS Местия Местия UGMS 020200Z AUTO VRB01KT //// ////// 13/11 Q1018
UGSA Натахтари Натахтари
UGGT Телави Телави